Aviation Digital Data Service (ADDS)

Output produced by METARs form (1531 UTC 01 May 2016)
found at http://www.aviationweather.gov/adds/metars/
 
KSEG 011453Z AUTO 15005KT 10SM -RA OVC012 08/06 A3009 RMK AO2 SLP192 P0003 60007 T00830061 50001
KSEG 011428Z AUTO 15005KT 5SM -RA BR OVC012 08/07 A3010 RMK AO2 P0003 T00830067
KSEG 011405Z AUTO 16005KT 2 1/2SM -RA BR OVC011 08/07 A3010 RMK AO2 P0001 T00830067
KSEG 011353Z AUTO 16006KT 1 3/4SM RA BR OVC011 08/07 A3010 RMK AO2 SLP192 P0003 T00830067
KSEG 011334Z AUTO 16006KT 1 3/4SM -RA BR OVC012 08/06 A3010 RMK AO2 P0000 T00830061
KSEG 011253Z AUTO 14005KT 10SM -RA OVC014 08/06 A3009 RMK AO2 SLP191 P0001 T00830061
KSEG 011153Z AUTO 15005KT 6SM -RA BR OVC013 08/06 A3009 RMK AO2 SLP189 P0004 60028 70032 T00830061 10111 20083 55003
KSEG 011137Z AUTO 15007KT 6SM -RA BR OVC013 08/06 A3009 RMK AO2 P0004 T00830061
KSEG 011053Z AUTO 16009KT 4SM RA BR OVC015 09/07 A3008 RMK AO2 SLP187 P0009 T00890067
KSEG 010953Z AUTO 15005KT 4SM RA BR BKN017 OVC023 09/07 A3009 RMK AO2 SLP190 P0006 T00890067
KSEG 010853Z AUTO 15008KT 8SM -RA FEW017 OVC027 09/07 A3010 RMK AO2 SLP193 P0004 60009 T00890067 58010
KSEG 010753Z AUTO 16005KT 8SM -RA BKN020 OVC029 10/07 A3012 RMK AO2 SLP199 P0003 T01000072
KSEG 010653Z AUTO 17006KT 5SM -RA BR OVC019 11/08 A3013 RMK AO2 SLP202 P0002 T01060083
KSEG 010553Z AUTO 16004KT 7SM -RA OVC018 11/09 A3013 RMK AO2 SLP203 P0002 60004 T01110089 10128 20100 56008
KSEG 010453Z AUTO 00000KT 10SM -RA BKN023 OVC035 11/08 A3014 RMK AO2 SLP207 P0000 T01110083 401390072
KSEG 010451Z AUTO 18003KT 10SM -RA BKN023 OVC033 11/08 A3014 RMK AO2 P0000
KSEG 010353Z AUTO 14004KT 8SM -RA OVC030 10/08 A3015 RMK AO2 SLP212 P0001 T01000083
KSEG 010253Z AUTO 12004KT 7SM -RA OVC033 11/08 A3017 RMK AO2 SLP219 P0001 60001 T01110078 58002
KSEG 010153Z AUTO 14005KT 10SM -RA OVC034 12/07 A3019 RMK AO2 RAB39 SLP223 P0000 T01220067
KSEG 010053Z AUTO 14005KT 10SM OVC037 12/06 A3018 RMK AO2 SLP220 T01220061
KSEG 302353Z AUTO 13004KT 10SM OVC040 13/06 A3018 RMK AO2 SLP221 T01280061 10139 20128 58000
KSEG 302253Z AUTO 12006KT 10SM OVC041 13/06 A3019 RMK AO2 SLP222 T01330061
KSEG 302153Z AUTO 12004KT 10SM OVC038 13/06 A3019 RMK AO2 SLP223 T01330061
KSEG 302053Z AUTO 13003KT 10SM OVC041 13/06 A3018 RMK AO2 SLP221 T01330061 56003
KSEG 301953Z AUTO 17004KT 10SM OVC038 13/06 A3018 RMK AO2 SLP221 T01330056
KSEG 301853Z AUTO 00000KT 10SM OVC037 13/06 A3019 RMK AO2 SLP222 T01330056
KSEG 301753Z AUTO 00000KT 10SM OVC044 13/06 A3019 RMK AO2 SLP225 T01330056 10133 20078 56006
KSEG 301653Z AUTO 11005KT 10SM BKN033 OVC046 13/06 A3020 RMK AO2 SLP226 T01280061
KSEG 301619Z AUTO VRB03KT 10SM SCT028 OVC046 13/06 A3020 RMK AO2 T01330061
KSEG 301612Z AUTO VRB03KT 10SM BKN028 OVC046 13/06 A3019 RMK AO2 T01330056
KSEG 301553Z AUTO VRB03KT 10SM FEW028 OVC045 12/06 A3020 RMK AO2 SLP228 T01220056
KSEG 301539Z AUTO 00000KT 10SM SCT027 OVC046 12/06 A3019 RMK AO2 T01220056
KSEG 301530Z AUTO 00000KT 10SM BKN027 OVC046 12/06 A3020 RMK AO2 T01170056
KSEG 301453Z AUTO 00000KT 10SM FEW028 OVC046 11/05 A3021 RMK AO2 SLP231 T01060050 58002
KSEG 301353Z AUTO 00000KT 10SM FEW029 OVC047 09/06 A3022 RMK AO2 SLP234 T00940056
KSEG 301253Z AUTO 00000KT 10SM BKN030 OVC047 08/05 A3022 RMK AO2 SLP234 T00830050
KSEG 301250Z AUTO 00000KT 10SM BKN030 OVC047 09/05 A3022 RMK AO2
KSEG 301153Z AUTO 00000KT 10SM OVC022 08/05 A3022 RMK AO2 SLP236 70003 T00780050 10083 20072 51020
KSEG 301053Z AUTO 07004KT 10SM OVC016 07/05 A3021 RMK AO2 SLP230 T00720050
KSEG 301000Z AUTO 02003KT 7SM FEW009 OVC017 07/06 A3020 RMK AO2 T00720056
KSEG 300953Z AUTO 00000KT 7SM OVC017 07/06 A3020 RMK AO2 SLP228 T00720056
KSEG 300853Z AUTO 05003KT 8SM OVC017 07/06 A3016 RMK AO2 SLP216 T00720056 53006
KSEG 300832Z AUTO 00000KT 8SM SCT012 OVC017 07/06 A3016 RMK AO2 T00720061
KSEG 300753Z AUTO 07004KT 9SM SCT009 OVC014 07/06 A3015 RMK AO2 SLP211 T00720056
KSEG 300653Z AUTO 07004KT 3SM BR OVC009 08/07 A3014 RMK AO2 SLP209 T00780067
KSEG 300604Z AUTO 00000KT 6SM BR BKN007 OVC011 08/07 A3014 RMK AO2 T00780067
KSEG 300553Z AUTO 05004KT 6SM BR SCT007 OVC011 08/07 A3015 RMK AO2 SLP210 60003 T00780067 10083 20078 50002
KSEG 300549Z AUTO 05003KT 6SM BR SCT007 BKN013 OVC017 08/07 A3015 RMK AO2
KSEG 300540Z AUTO 04003KT 6SM BR BKN011 OVC017 08/07 A3015 RMK AO2 T00780067
KSEG 300519Z AUTO 00000KT 5SM BR SCT008 OVC017 08/07 A3015 RMK AO2 T00830067
KSEG 300453Z AUTO 00000KT 6SM BR FEW006 BKN012 OVC016 08/07 A3016 RMK AO2 SLP214 T00830067 401000072
KSEG 300411Z AUTO 05003KT 5SM BR FEW006 OVC015 08/07 A3015 RMK AO2 T00780067
KSEG 300353Z AUTO 06004KT 4SM BR FEW008 OVC014 08/07 A3014 RMK AO2 RAB04E31 SLP207 P0000 T00780067
KSEG 300346Z AUTO 05005KT 3SM BR SCT008 OVC012 08/07 A3014 RMK AO2 RAB04E31 P0000 T00780067